Time;durP1;ratioP1;P1;durP2;ratioP2;P2;SDS_P1;SDS_P2;PMS_P1;PMS_P2;Temp;Humidity;BMP_temperature;BMP_pressure;BME280_temperature;BME280_humidity;BME280_pressure;Samples;Min_cycle;Max_cycle;Signal;HPM_P1;HPM_P2
2022/05/08 00:00:54;;;;;;;7.38;5.32;;;9.20;99.90;;;;;;4958596;29;20122;-83
2022/05/08 00:03:20;;;;;;;9.35;5.70;;;9.20;99.90;;;;;;4958763;28;20062;-82
2022/05/08 00:05:45;;;;;;;8.98;5.63;;;9.30;99.90;;;;;;4958057;29;20493;-82
2022/05/08 00:08:11;;;;;;;7.45;5.55;;;9.30;99.90;;;;;;4954657;29;20027;-81
2022/05/08 00:10:36;;;;;;;9.35;6.32;;;9.30;99.90;;;;;;4955737;29;20547;-81
2022/05/08 00:13:02;;;;;;;10.23;5.78;;;9.30;99.90;;;;;;4955715;29;20027;-81
2022/05/08 00:15:28;;;;;;;8.25;5.75;;;9.30;99.90;;;;;;4956412;29;20031;-82
2022/05/08 00:17:53;;;;;;;9.75;6.68;;;9.30;99.90;;;;;;4958129;29;20094;-81
2022/05/08 00:20:19;;;;;;;8.55;6.45;;;9.40;99.90;;;;;;4953520;28;20023;-81
2022/05/08 00:22:45;;;;;;;7.10;5.20;;;9.40;99.90;;;;;;4954285;29;20135;-82
2022/05/08 00:25:11;;;;;;;7.72;5.43;;;9.40;99.90;;;;;;4954379;29;20051;-80
2022/05/08 00:27:37;;;;;;;7.78;5.22;;;9.40;99.90;;;;;;4954370;28;20416;-81
2022/05/08 00:30:04;;;;;;;10.80;5.88;;;9.40;99.90;;;;;;4952867;29;20083;-80
2022/05/08 00:32:30;;;;;;;9.88;6.18;;;9.50;99.90;;;;;;4957108;29;20027;-83
2022/05/08 00:34:59;;;;;;;6.13;4.90;;;;;;;;;;4973159;29;20010;-82
2022/05/08 00:37:25;;;;;;;10.88;7.35;;;9.50;99.90;;;;;;4959749;29;20031;-81
2022/05/08 00:39:51;;;;;;;11.23;6.05;;;9.60;99.90;;;;;;4957259;29;20066;-82
2022/05/08 00:42:16;;;;;;;11.35;6.38;;;9.70;99.90;;;;;;4956888;29;20103;-81
2022/05/08 00:44:42;;;;;;;9.27;5.85;;;9.70;99.90;;;;;;4956986;29;20547;-81
2022/05/08 00:47:08;;;;;;;9.27;5.75;;;9.80;99.90;;;;;;4958212;29;20019;-80
2022/05/08 00:49:33;;;;;;;8.18;5.88;;;9.80;99.90;;;;;;4958128;29;20272;-79
2022/05/08 00:51:59;;;;;;;7.97;5.60;;;9.80;99.90;;;;;;4958889;29;20436;-81
2022/05/08 00:54:26;;;;;;;9.30;6.15;;;9.80;99.90;;;;;;4961039;29;20054;-81
2022/05/08 00:56:53;;;;;;;11.05;5.70;;;9.80;99.90;;;;;;4962281;29;20416;-81
2022/05/08 00:59:19;;;;;;;9.23;6.22;;;9.80;99.90;;;;;;4965638;29;20023;-82
2022/05/08 01:01:45;;;;;;;8.68;5.45;;;9.80;99.90;;;;;;4965316;29;20029;-80
2022/05/08 01:04:10;;;;;;;10.30;6.70;;;9.90;99.90;;;;;;4964194;29;20087;-81
2022/05/08 01:06:36;;;;;;;10.52;7.38;;;9.90;99.90;;;;;;4963989;28;20038;-81
2022/05/08 01:09:02;;;;;;;9.00;6.63;;;10.00;99.90;;;;;;4961154;29;20082;-80
2022/05/08 01:11:28;;;;;;;9.68;6.13;;;10.00;99.90;;;;;;4962159;28;20023;-82
2022/05/08 01:13:54;;;;;;;10.48;6.72;;;10.00;99.90;;;;;;4959886;29;20023;-80
2022/05/08 01:16:21;;;;;;;8.73;5.53;;;9.90;99.90;;;;;;4959353;29;20473;-82
2022/05/08 01:18:49;;;;;;;10.73;7.13;;;9.90;99.90;;;;;;4958372;29;20027;-81
2022/05/08 01:21:22;;;;;;;10.75;8.05;;;10.00;99.90;;;;;;4957665;29;20074;-80
2022/05/08 01:23:47;;;;;;;10.57;6.97;;;9.90;99.90;;;;;;4954203;29;20515;-82
2022/05/08 01:26:20;;;;;;;10.68;6.78;;;9.90;99.90;;;;;;4963039;29;20023;-82
2022/05/08 01:28:45;;;;;;;11.43;7.75;;;10.00;99.90;;;;;;4967737;29;20051;-83
2022/05/08 01:31:11;;;;;;;12.75;7.75;;;;;;;;;;4972957;28;20027;-83
2022/05/08 01:33:37;;;;;;;10.95;7.22;;;10.00;99.90;;;;;;4975880;29;20038;-83
2022/05/08 01:36:03;;;;;;;12.45;8.15;;;9.90;99.90;;;;;;4963969;29;20082;-80
2022/05/08 01:38:29;;;;;;;9.18;7.03;;;9.90;99.90;;;;;;4961808;29;20079;-80
2022/05/08 01:40:55;;;;;;;9.57;6.65;;;9.90;99.90;;;;;;4964118;29;20019;-79
2022/05/08 01:43:21;;;;;;;13.77;6.93;;;9.90;99.90;;;;;;4960303;29;20396;-80
2022/05/08 01:45:48;;;;;;;15.20;8.25;;;9.90;99.90;;;;;;4963243;29;20026;-81
2022/05/08 01:48:22;;;;;;;11.88;8.07;;;9.90;99.90;;;;;;4959058;29;20110;-80
2022/05/08 01:50:55;;;;;;;13.80;7.97;;;9.90;99.90;;;;;;4963090;29;20110;-80
2022/05/08 01:53:23;;;;;;;10.77;7.68;;;9.90;99.90;;;;;;4960675;29;20373;-83
2022/05/08 01:55:52;;;;;;;10.88;7.43;;;9.90;99.90;;;;;;4959196;29;20481;-81
2022/05/08 01:58:18;;;;;;;14.13;8.07;;;9.90;99.90;;;;;;4960037;29;20035;-80
2022/05/08 02:00:44;;;;;;;12.07;7.60;;;9.90;99.90;;;;;;4972127;29;20030;-84
2022/05/08 02:03:12;;;;;;;13.68;7.57;;;9.90;99.90;;;;;;4980647;28;20062;-84
2022/05/08 02:05:40;;;;;;;11.43;7.55;;;9.90;99.90;;;;;;4980501;28;20024;-84
2022/05/08 02:08:06;;;;;;;11.75;7.60;;;9.80;99.90;;;;;;4980157;28;20035;-84
2022/05/08 02:10:32;;;;;;;13.30;6.95;;;9.80;99.90;;;;;;4980585;28;20019;-84
2022/05/08 02:12:57;;;;;;;10.27;7.55;;;9.80;99.90;;;;;;4978637;28;20050;-83
2022/05/08 02:15:29;;;;;;;10.65;6.93;;;9.70;99.90;;;;;;4977853;29;20027;-83
2022/05/08 02:18:04;;;;;;;10.38;7.40;;;9.70;99.90;;;;;;4976825;29;20055;-83
2022/05/08 02:20:30;;;;;;;11.60;6.88;;;9.60;99.90;;;;;;4971654;29;20030;-83
2022/05/08 02:22:56;;;;;;;14.10;7.82;;;9.60;99.90;;;;;;4977515;28;20079;-82
2022/05/08 02:25:22;;;;;;;9.80;7.30;;;9.50;99.90;;;;;;4976594;29;20043;-83
2022/05/08 02:27:51;;;;;;;14.50;8.10;;;9.50;99.90;;;;;;4975773;29;20042;-83
2022/05/08 02:30:22;;;;;;;10.40;7.65;;;9.40;99.90;;;;;;4977111;29;20035;-83
2022/05/08 02:32:53;;;;;;;12.00;6.22;;;9.30;99.90;;;;;;4970996;29;20042;-81
2022/05/08 02:35:23;;;;;;;9.88;6.60;;;9.30;99.90;;;;;;4969083;28;20559;-81
2022/05/08 02:37:52;;;;;;;9.43;7.13;;;9.20;99.90;;;;;;4974098;29;20118;-83
2022/05/08 02:40:18;;;;;;;15.05;8.48;;;9.20;99.90;;;;;;4978053;28;20043;-83
2022/05/08 02:42:44;;;;;;;11.32;7.47;;;9.30;99.90;;;;;;4976253;28;20034;-81
2022/05/08 02:45:10;;;;;;;10.93;7.63;;;9.30;99.90;;;;;;4977604;28;20039;-82
2022/05/08 02:47:37;;;;;;;13.20;9.13;;;9.20;99.90;;;;;;4975940;29;20507;-83
2022/05/08 02:50:04;;;;;;;11.40;7.22;;;9.10;99.90;;;;;;4976720;28;20027;-82
2022/05/08 02:52:30;;;;;;;11.25;7.60;;;9.10;99.90;;;;;;4977952;29;20071;-81
2022/05/08 02:54:56;;;;;;;12.55;7.30;;;9.00;99.90;;;;;;4976745;29;20019;-83
2022/05/08 03:00:07;;;;;;;13.73;8.45;;;9.00;99.90;;;;;;4977975;29;20050;-83
2022/05/08 03:02:34;;;;;;;12.82;8.40;;;9.10;99.90;;;;;;4977575;29;20028;-81
2022/05/08 03:05:04;;;;;;;15.50;8.77;;;9.10;99.90;;;;;;4976826;29;20050;-83
2022/05/08 03:07:29;;;;;;;13.80;8.13;;;9.10;99.90;;;;;;4976893;29;20019;-82
2022/05/08 03:09:56;;;;;;;12.70;8.55;;;9.00;99.90;;;;;;4976140;29;20038;-83
2022/05/08 03:12:23;;;;;;;12.50;7.45;;;9.00;99.90;;;;;;4976979;29;20086;-84
2022/05/08 03:14:49;;;;;;;14.13;8.18;;;8.90;99.90;;;;;;4976327;28;20504;-83
2022/05/08 03:17:15;;;;;;;12.23;8.00;;;8.80;99.90;;;;;;4975313;28;20454;-82
2022/05/08 03:19:41;;;;;;;11.52;7.22;;;8.70;99.90;;;;;;4974364;29;20075;-82
2022/05/08 03:22:07;;;;;;;14.75;7.93;;;8.80;99.90;;;;;;4975809;29;20015;-83
2022/05/08 03:24:33;;;;;;;13.48;7.70;;;8.80;99.90;;;;;;4975873;29;20042;-82
2022/05/08 03:26:58;;;;;;;13.93;8.75;;;8.70;99.90;;;;;;4975705;29;20087;-82
2022/05/08 03:29:26;;;;;;;10.98;7.78;;;8.70;99.90;;;;;;4976434;29;20019;-82
2022/05/08 03:31:52;;;;;;;13.57;8.15;;;8.50;99.90;;;;;;4975086;29;20024;-83
2022/05/08 03:34:18;;;;;;;14.55;8.02;;;8.60;99.90;;;;;;4975009;28;20061;-83
2022/05/08 03:36:44;;;;;;;12.55;8.63;;;8.60;99.90;;;;;;4975091;29;20019;-83
2022/05/08 03:39:11;;;;;;;14.20;8.55;;;8.70;99.90;;;;;;4973307;29;20679;-82
2022/05/08 03:41:37;;;;;;;13.40;8.18;;;8.60;99.90;;;;;;4975380;28;20027;-84
2022/05/08 03:44:03;;;;;;;12.75;8.30;;;8.60;99.90;;;;;;4972861;29;20027;-82
2022/05/08 03:46:29;;;;;;;15.07;8.85;;;8.60;99.90;;;;;;4973094;29;20023;-83
2022/05/08 03:48:55;;;;;;;13.82;8.70;;;8.60;99.90;;;;;;4973630;29;20007;-83
2022/05/08 03:51:21;;;;;;;13.18;8.38;;;8.60;99.90;;;;;;4975519;28;20034;-83
2022/05/08 03:53:47;;;;;;;13.60;7.10;;;8.50;99.90;;;;;;4975697;28;20023;-82
2022/05/08 03:56:13;;;;;;;11.50;6.78;;;8.40;99.90;;;;;;4975810;29;20014;-83
2022/05/08 03:58:40;;;;;;;12.80;7.70;;;8.40;99.90;;;;;;4977544;28;20063;-81
2022/05/08 04:01:06;;;;;;;12.32;7.45;;;8.30;99.90;;;;;;4968394;29;20098;-80
2022/05/08 04:03:31;;;;;;;11.45;7.50;;;8.30;99.90;;;;;;4966869;29;20055;-81
2022/05/08 04:05:58;;;;;;;13.02;8.35;;;8.30;99.90;;;;;;4976471;29;20106;-81
2022/05/08 04:08:24;;;;;;;15.25;7.68;;;8.40;99.90;;;;;;4960700;29;20027;-82
2022/05/08 04:10:49;;;;;;;12.98;7.47;;;8.40;99.90;;;;;;4969456;29;20432;-82
2022/05/08 04:13:15;;;;;;;12.63;7.45;;;8.40;99.90;;;;;;4971088;29;20027;-83
2022/05/08 04:18:26;;;;;;;15.85;9.05;;;8.30;99.90;;;;;;4971375;29;20089;-81
2022/05/08 04:20:51;;;;;;;18.00;8.02;;;8.40;99.90;;;;;;4968239;29;20023;-83
2022/05/08 04:26:01;;;;;;;15.27;8.43;;;8.50;99.90;;;;;;4967885;29;20054;-80
2022/05/08 04:28:26;;;;;;;13.98;9.02;;;8.40;99.90;;;;;;4966402;29;20020;-83
2022/05/08 04:30:52;;;;;;;14.18;8.18;;;8.40;99.90;;;;;;4964585;29;20038;-81
2022/05/08 04:33:18;;;;;;;13.93;8.20;;;8.40;99.90;;;;;;4961629;29;20028;-81
2022/05/08 04:35:44;;;;;;;16.73;8.65;;;8.40;99.90;;;;;;4958918;29;20037;-81
2022/05/08 04:38:11;;;;;;;15.95;8.73;;;8.50;99.90;;;;;;4961439;29;20465;-82
2022/05/08 04:40:38;;;;;;;10.25;6.55;;;8.50;99.90;;;;;;4963037;29;20034;-81
2022/05/08 04:43:03;;;;;;;10.38;7.05;;;8.50;99.90;;;;;;4961610;28;20019;-82
2022/05/08 04:45:29;;;;;;;10.63;5.90;;;8.50;99.90;;;;;;4963007;29;20298;-81
2022/05/08 04:47:56;;;;;;;13.00;7.28;;;8.50;99.90;;;;;;4961885;29;20030;-80
2022/05/08 04:50:22;;;;;;;15.20;8.90;;;8.60;99.90;;;;;;4961510;29;20488;-83
2022/05/08 04:52:53;;;;;;;18.20;9.10;;;8.80;99.90;;;;;;4968602;29;20030;-83
2022/05/08 04:55:19;;;;;;;14.90;8.07;;;8.90;99.90;;;;;;4968803;29;20091;-82
2022/05/08 04:57:45;;;;;;;14.90;8.93;;;9.00;99.90;;;;;;4972463;29;20031;-84
2022/05/08 05:00:11;;;;;;;14.80;8.90;;;9.10;99.90;;;;;;4976512;28;20030;-84
2022/05/08 05:02:36;;;;;;;17.95;10.10;;;9.10;99.90;;;;;;4964475;29;20034;-81
2022/05/08 05:05:02;;;;;;;16.90;10.93;;;9.30;99.90;;;;;;4967653;28;20035;-80
2022/05/08 05:07:28;;;;;;;13.23;7.45;;;9.40;99.90;;;;;;4975277;29;20027;-83
2022/05/08 05:09:56;;;;;;;14.55;9.18;;;9.30;99.90;;;;;;4976725;29;20027;-83
2022/05/08 05:12:23;;;;;;;15.63;8.82;;;9.40;99.90;;;;;;4978570;28;20015;-82
2022/05/08 05:14:48;;;;;;;12.05;8.43;;;9.60;99.90;;;;;;4978981;28;20022;-82
2022/05/08 05:17:14;;;;;;;14.80;8.27;;;9.70;99.90;;;;;;4974079;28;20027;-83
2022/05/08 05:19:40;;;;;;;12.57;8.40;;;9.80;99.90;;;;;;4966027;29;20042;-81
2022/05/08 05:22:06;;;;;;;13.80;7.38;;;9.90;99.90;;;;;;4973297;29;20054;-83
2022/05/08 05:24:31;;;;;;;14.52;8.93;;;9.90;99.90;;;;;;4977442;29;20047;-83
2022/05/08 05:26:58;;;;;;;15.18;10.15;;;10.10;99.90;;;;;;4975399;29;20027;-84
2022/05/08 05:29:24;;;;;;;14.70;9.15;;;10.30;99.90;;;;;;4975972;29;20011;-83
2022/05/08 05:31:49;;;;;;;14.23;8.60;;;10.40;99.90;;;;;;4972692;29;20031;-81
2022/05/08 05:34:15;;;;;;;14.15;8.00;;;10.40;99.90;;;;;;4951636;29;20504;-80
2022/05/08 05:36:41;;;;;;;12.20;8.25;;;10.50;99.90;;;;;;4951434;29;20063;-79
2022/05/08 05:39:06;;;;;;;12.75;8.60;;;10.70;99.90;;;;;;4951613;29;20393;-79
2022/05/08 05:41:33;;;;;;;12.27;8.18;;;10.80;99.90;;;;;;4951515;29;20451;-80
2022/05/08 05:43:58;;;;;;;11.63;7.35;;;10.90;99.90;;;;;;4951104;29;20035;-79
2022/05/08 05:49:08;;;;;;;10.45;6.35;;;11.00;99.90;;;;;;4952699;29;20589;-79
2022/05/08 05:51:34;;;;;;;10.32;7.20;;;11.00;99.90;;;;;;4952239;29;20106;-79
2022/05/08 05:53:59;;;;;;;7.95;5.70;;;11.10;99.90;;;;;;4951307;29;20024;-79
2022/05/08 05:56:25;;;;;;;8.10;5.72;;;11.10;99.90;;;;;;4952944;29;20024;-79
2022/05/08 05:58:51;;;;;;;7.13;4.90;;;11.10;99.90;;;;;;4951187;29;20259;-79
2022/05/08 06:01:17;;;;;;;6.70;5.68;;;11.20;99.90;;;;;;4951029;29;20019;-79
2022/05/08 06:03:42;;;;;;;8.20;5.00;;;11.20;99.90;;;;;;4951263;29;20052;-80
2022/05/08 06:06:08;;;;;;;6.95;4.88;;;11.20;99.90;;;;;;4950391;29;20223;-80
2022/05/08 06:08:34;;;;;;;8.52;5.25;;;11.40;99.90;;;;;;4944450;29;20019;-80
2022/05/08 06:10:59;;;;;;;6.70;4.93;;;11.40;99.90;;;;;;4946460;29;20026;-79
2022/05/08 06:13:25;;;;;;;6.93;5.32;;;11.60;99.90;;;;;;4950766;29;20020;-78
2022/05/08 06:15:51;;;;;;;6.03;3.95;;;11.60;99.90;;;;;;4953004;29;20311;-79
2022/05/08 06:18:16;;;;;;;5.03;4.53;;;11.80;99.90;;;;;;4956776;29;20032;-79
2022/05/08 06:20:42;;;;;;;8.88;5.20;;;11.90;99.90;;;;;;4954508;29;20047;-80
2022/05/08 06:23:07;;;;;;;6.47;5.30;;;11.90;99.90;;;;;;4955635;29;20058;-80
2022/05/08 06:25:33;;;;;;;5.38;4.35;;;12.30;99.90;;;;;;4955261;29;20128;-80
2022/05/08 06:27:59;;;;;;;6.00;4.60;;;12.40;99.90;;;;;;4945325;29;20385;-79
2022/05/08 06:30:24;;;;;;;7.57;4.80;;;12.40;99.90;;;;;;4947079;29;20093;-80
2022/05/08 06:32:50;;;;;;;6.03;4.38;;;12.40;99.90;;;;;;4944764;29;20425;-81
2022/05/08 06:35:16;;;;;;;5.55;4.45;;;12.50;99.90;;;;;;4944458;29;20488;-79
2022/05/08 06:37:41;;;;;;;8.57;4.97;;;12.50;99.90;;;;;;4946534;29;20024;-79
2022/05/08 06:40:08;;;;;;;4.63;3.65;;;12.70;99.90;;;;;;4944403;29;20106;-79
2022/05/08 06:42:33;;;;;;;6.05;4.65;;;12.90;99.90;;;;;;4944524;29;20023;-79
2022/05/08 06:45:00;;;;;;;8.50;4.45;;;13.10;99.90;;;;;;4945358;29;20035;-79
2022/05/08 06:47:26;;;;;;;7.40;5.57;;;12.80;99.90;;;;;;4939131;29;20026;-79
2022/05/08 06:49:51;;;;;;;9.85;5.05;;;13.60;99.90;;;;;;4952481;29;20027;-80
2022/05/08 06:52:17;;;;;;;5.97;4.60;;;13.30;99.90;;;;;;4946836;29;20094;-79
2022/05/08 06:54:42;;;;;;;5.43;4.45;;;13.40;99.90;;;;;;4951380;29;20027;-79
2022/05/08 06:57:08;;;;;;;6.07;4.63;;;13.90;99.90;;;;;;4953204;29;20214;-80
2022/05/08 07:02:18;;;;;;;5.90;4.32;;;15.10;99.90;;;;;;4964399;29;20025;-81
2022/05/08 07:04:44;;;;;;;6.35;3.95;;;15.70;99.90;;;;;;4961043;28;20114;-83
2022/05/08 07:07:09;;;;;;;6.50;4.50;;;16.10;99.90;;;;;;4953524;29;20216;-81
2022/05/08 07:09:35;;;;;;;4.55;3.83;;;16.30;99.90;;;;;;4960509;29;20362;-82
2022/05/08 07:12:01;;;;;;;5.82;4.03;;;16.40;99.90;;;;;;4963776;29;20011;-82
2022/05/08 07:14:27;;;;;;;4.85;4.00;;;16.30;99.90;;;;;;4971571;29;20023;-81
2022/05/08 07:16:53;;;;;;;6.20;4.30;;;16.10;99.90;;;;;;4980042;28;20355;-83
2022/05/08 07:19:19;;;;;;;5.10;4.15;;;15.70;99.90;;;;;;4977882;29;20024;-83
2022/05/08 07:21:44;;;;;;;5.22;4.25;;;15.60;99.90;;;;;;4963645;29;20024;-82
2022/05/08 07:24:10;;;;;;;4.18;3.78;;;15.50;99.90;;;;;;4952061;29;20050;-82
2022/05/08 07:26:36;;;;;;;5.82;3.90;;;15.30;99.90;;;;;;4953226;29;20090;-82
2022/05/08 07:29:04;;;;;;;9.15;4.22;;;15.30;99.90;;;;;;4943176;29;20023;-86
2022/05/08 07:31:31;;;;;;;5.82;4.78;;;15.70;99.90;;;;;;4950797;29;20035;-82
2022/05/08 07:36:41;;;;;;;6.38;4.13;;;16.20;99.90;;;;;;4954727;29;20042;-83
2022/05/08 07:39:07;;;;;;;5.15;3.83;;;16.40;99.90;;;;;;4935848;29;20020;-87
2022/05/08 07:41:32;;;;;;;5.35;3.65;;;16.40;99.90;;;;;;4933543;29;20103;-87
2022/05/08 07:43:58;;;;;;;4.68;3.90;;;16.50;99.90;;;;;;4933223;29;20043;-80
2022/05/08 07:46:25;;;;;;;6.40;4.55;;;17.20;99.90;;;;;;4934188;29;20034;-81
2022/05/08 07:48:51;;;;;;;9.07;4.65;;;17.10;99.90;;;;;;4933011;29;20047;-81
2022/05/08 07:51:17;;;;;;;4.70;4.15;;;17.30;99.90;;;;;;4932454;29;20027;-81
2022/05/08 07:53:42;;;;;;;7.00;5.10;;;17.40;99.90;;;;;;4934782;29;20493;-81
2022/05/08 07:56:08;;;;;;;5.05;3.55;;;17.40;99.90;;;;;;4936015;29;20107;-83
2022/05/08 07:58:34;;;;;;;4.75;3.80;;;17.40;99.90;;;;;;4942520;29;20024;-81
2022/05/08 08:01:00;;;;;;;5.05;3.92;;;17.90;99.90;;;;;;4944954;29;20024;-81
2022/05/08 08:03:29;;;;;;;4.13;3.40;;;17.50;99.90;;;;;;4937397;29;20123;-81
2022/05/08 08:05:56;;;;;;;3.88;3.42;;;17.80;99.90;;;;;;4941790;29;20058;-80
2022/05/08 08:08:23;;;;;;;8.55;4.88;;;17.30;99.90;;;;;;4939586;29;20047;-85
2022/05/08 08:10:52;;;;;;;4.63;3.72;;;17.50;99.90;;;;;;4941894;29;20032;-81
2022/05/08 08:13:19;;;;;;;4.63;3.60;;;18.10;99.90;;;;;;4938835;29;20060;-82
2022/05/08 08:15:46;;;;;;;4.00;3.15;;;18.60;99.90;;;;;;4932898;29;20024;-82
2022/05/08 08:18:12;;;;;;;3.28;3.05;;;19.00;99.90;;;;;;4932398;29;20034;-81
2022/05/08 08:20:38;;;;;;;4.13;3.17;;;18.90;99.90;;;;;;4932554;29;20115;-83
2022/05/08 08:23:04;;;;;;;4.10;3.67;;;18.70;99.90;;;;;;4933655;29;20043;-81
2022/05/08 08:25:30;;;;;;;5.05;3.92;;;17.40;99.90;;;;;;4931667;29;20106;-82
2022/05/08 08:27:56;;;;;;;6.60;3.60;;;17.40;99.90;;;;;;4929593;29;20020;-82
2022/05/08 08:30:21;;;;;;;8.48;4.43;;;17.80;99.90;;;;;;4931747;29;20444;-81
2022/05/08 08:32:47;;;;;;;6.88;3.47;;;17.80;99.90;;;;;;4935004;29;20136;-81
2022/05/08 08:35:13;;;;;;;6.10;3.90;;;17.40;99.90;;;;;;4936503;29;20090;-81
2022/05/08 08:37:39;;;;;;;4.28;3.55;;;17.80;99.90;;;;;;4936043;29;20032;-81
2022/05/08 08:40:05;;;;;;;6.13;4.55;;;17.90;99.90;;;;;;4936097;29;20205;-81
2022/05/08 08:42:32;;;;;;;3.58;3.28;;;17.60;99.90;;;;;;4936195;29;20034;-81
2022/05/08 08:47:56;;;;;;;9.75;5.30;;;17.70;99.90;;;;;;4937720;29;20030;-81
2022/05/08 08:50:24;;;;;;;4.18;3.50;;;17.70;99.90;;;;;;4933304;29;20165;-81
2022/05/08 08:52:50;;;;;;;7.47;3.88;;;17.90;99.90;;;;;;4932800;29;20030;-82
2022/05/08 08:55:17;;;;;;;5.13;3.42;;;15.80;99.90;;;;;;4931680;29;20497;-82
2022/05/08 08:57:44;;;;;;;6.63;4.65;;;18.40;99.90;;;;;;4931346;29;20027;-81
2022/05/08 09:00:10;;;;;;;5.78;3.30;;;18.40;99.90;;;;;;4932990;29;20523;-82
2022/05/08 09:02:36;;;;;;;4.72;3.22;;;18.70;99.90;;;;;;4932783;29;20035;-81
2022/05/08 09:05:07;;;;;;;5.57;3.38;;;18.90;99.90;;;;;;4931968;29;20051;-81
2022/05/08 09:07:41;;;;;;;4.65;4.15;;;18.70;99.90;;;;;;4934737;29;20031;-81
2022/05/08 09:10:25;;;;;;;6.32;3.90;;;18.10;99.90;;;;;;4934783;29;20027;-81
2022/05/08 09:12:54;;;;;;;4.25;3.30;;;17.80;99.90;;;;;;4935778;29;20032;-81
2022/05/08 09:15:22;;;;;;;3.60;3.17;;;17.50;99.90;;;;;;4934263;29;20038;-81
2022/05/08 09:17:50;;;;;;;4.88;4.30;;;17.50;99.90;;;;;;4934688;29;20323;-81
2022/05/08 09:20:29;;;;;;;5.03;3.85;;;17.70;99.90;;;;;;4935061;29;20035;-80
2022/05/08 09:23:18;;;;;;;5.82;3.05;;;17.80;99.90;;;;;;4935163;29;20410;-81
2022/05/08 09:26:00;;;;;;;4.85;3.67;;;17.90;99.90;;;;;;4932906;29;20055;-81
2022/05/08 09:28:42;;;;;;;5.05;3.65;;;17.90;99.90;;;;;;4933350;29;20378;-81
2022/05/08 09:31:10;;;;;;;3.90;3.53;;;18.40;99.90;;;;;;4931328;29;20438;-82
2022/05/08 09:33:41;;;;;;;3.25;2.65;;;19.30;99.90;;;;;;4931007;29;20143;-82
2022/05/08 09:36:11;;;;;;;3.42;3.13;;;19.20;99.90;;;;;;4931090;29;20052;-82
2022/05/08 09:38:53;;;;;;;4.40;3.97;;;19.10;99.90;;;;;;4932960;29;20028;-82
2022/05/08 09:41:28;;;;;;;5.47;3.85;;;19.10;99.90;;;;;;4932191;29;20034;-81
2022/05/08 09:44:07;;;;;;;4.15;3.00;;;19.10;99.90;;;;;;4933935;29;20028;-82
2022/05/08 09:46:37;;;;;;;4.30;3.75;;;18.70;99.90;;;;;;4931705;29;20206;-82
2022/05/08 09:49:03;;;;;;;3.72;3.42;;;18.70;99.90;;;;;;4932569;29;20325;-81
2022/05/08 09:51:32;;;;;;;6.80;4.28;;;18.90;99.90;;;;;;4936556;29;20441;-82
2022/05/08 09:53:58;;;;;;;6.70;3.83;;;18.90;99.90;;;;;;4938472;29;20035;-80
2022/05/08 09:56:25;;;;;;;4.85;4.18;;;18.40;99.90;;;;;;4938376;29;20032;-81
2022/05/08 09:58:51;;;;;;;4.35;3.70;;;18.20;99.90;;;;;;4938340;29;20101;-81
2022/05/08 10:01:17;;;;;;;4.45;3.92;;;18.30;99.90;;;;;;4939627;29;20047;-81
2022/05/08 10:03:43;;;;;;;4.82;4.13;;;18.40;99.90;;;;;;4938987;29;20555;-80
2022/05/08 10:06:10;;;;;;;6.15;4.60;;;18.60;99.90;;;;;;4939839;29;20077;-81
2022/05/08 10:08:37;;;;;;;4.68;4.13;;;18.40;99.90;;;;;;4939822;29;20476;-81
2022/05/08 10:13:56;;;;;;;5.18;3.75;;;18.50;99.90;;;;;;4937303;29;20536;-81
2022/05/08 10:16:48;;;;;;;3.30;3.10;;;18.20;99.90;;;;;;4941926;29;20043;-80
2022/05/08 10:19:19;;;;;;;4.28;3.35;;;18.30;99.90;;;;;;4936203;29;20024;-82
2022/05/08 10:21:59;;;;;;;4.35;3.17;;;18.20;99.90;;;;;;4932486;29;20028;-83
2022/05/08 10:24:31;;;;;;;4.63;3.97;;;18.30;99.90;;;;;;4932409;29;20083;-82
2022/05/08 10:27:30;;;;;;;4.72;4.03;;;20.70;99.90;;;;;;4934429;29;20095;-83
2022/05/08 10:29:56;;;;;;;4.88;3.70;;;17.70;99.90;;;;;;4936453;29;20038;-81
2022/05/08 10:32:31;;;;;;;6.38;3.97;;;17.70;99.90;;;;;;4936319;29;20119;-81
2022/05/08 10:35:29;;;;;;;4.85;4.32;;;17.50;99.90;;;;;;4936203;29;20031;-80
2022/05/08 10:38:07;;;;;;;4.82;3.95;;;17.40;99.90;;;;;;4906586;29;20036;-81
2022/05/08 10:40:35;;;;;;;4.82;3.80;;;17.40;99.90;;;;;;4938699;29;20032;-81
2022/05/08 10:43:25;;;;;;;6.10;4.32;;;17.30;99.90;;;;;;4940157;29;20056;-81
2022/05/08 10:45:50;;;;;;;5.40;3.80;;;17.40;99.90;;;;;;4940344;29;20055;-81
2022/05/08 10:48:21;;;;;;;4.45;3.50;;;17.70;99.90;;;;;;4939069;29;20031;-81
2022/05/08 10:50:55;;;;;;;4.68;4.10;;;17.60;99.90;;;;;;4938432;29;20038;-81
2022/05/08 10:53:36;;;;;;;5.50;3.67;;;18.00;99.90;;;;;;4935075;29;20063;-83
2022/05/08 10:56:08;;;;;;;5.45;3.60;;;18.00;99.90;;;;;;4933673;29;20495;-82
2022/05/08 10:58:41;;;;;;;4.28;3.85;;;18.00;99.90;;;;;;4933261;29;20110;-83
2022/05/08 11:01:11;;;;;;;5.68;3.88;;;18.70;99.90;;;;;;4933809;29;20361;-84
2022/05/08 11:03:37;;;;;;;3.33;3.03;;;18.80;99.90;;;;;;4932944;29;20473;-81
2022/05/08 11:06:05;;;;;;;3.85;3.30;;;19.40;99.90;;;;;;4935918;29;20031;-82
2022/05/08 11:08:32;;;;;;;5.00;3.40;;;19.70;99.90;;;;;;4934934;29;20489;-81
2022/05/08 11:11:09;;;;;;;3.00;2.70;;;20.20;99.90;;;;;;4933617;29;20118;-83
2022/05/08 11:13:41;;;;;;;3.58;3.10;;;20.60;94.40;;;;;;4933094;29;20023;-83
2022/05/08 11:16:07;;;;;;;3.20;2.90;;;20.40;95.30;;;;;;4933142;29;20122;-81
2022/05/08 11:18:32;;;;;;;2.92;2.60;;;21.30;89.10;;;;;;4933343;29;20122;-81
2022/05/08 11:21:00;;;;;;;4.07;2.92;;;21.40;95.00;;;;;;4933423;29;20035;-83
2022/05/08 11:23:27;;;;;;;3.50;2.85;;;21.50;90.20;;;;;;4933174;29;20028;-83
2022/05/08 11:25:58;;;;;;;2.75;2.55;;;20.50;99.50;;;;;;4933166;29;20043;-82
2022/05/08 11:28:25;;;;;;;3.85;3.28;;;19.50;99.90;;;;;;4934791;29;20085;-82
2022/05/08 11:30:53;;;;;;;4.18;2.55;;;19.30;99.90;;;;;;4935042;29;20055;-81
2022/05/08 11:36:33;;;;;;;3.95;2.83;;;18.80;99.90;;;;;;4940787;29;20091;-81
2022/05/08 11:39:00;;;;;;;6.68;3.83;;;18.80;99.90;;;;;;4935477;29;20114;-82
2022/05/08 11:41:27;;;;;;;3.58;2.95;;;18.20;99.90;;;;;;4932861;29;20076;-83
2022/05/08 11:43:58;;;;;;;3.35;2.65;;;18.10;99.90;;;;;;4932868;29;20071;-82
2022/05/08 11:46:34;;;;;;;5.88;2.55;;;18.10;99.90;;;;;;4935913;29;20106;-82
2022/05/08 11:49:01;;;;;;;3.53;2.38;;;18.20;99.90;;;;;;4932860;29;20035;-82
2022/05/08 11:51:40;;;;;;;4.90;2.95;;;18.10;99.90;;;;;;4933132;29;20087;-83
2022/05/08 11:54:16;;;;;;;2.83;2.38;;;18.40;99.90;;;;;;4932966;29;20032;-82
2022/05/08 11:56:41;;;;;;;2.35;2.15;;;18.70;99.90;;;;;;4932401;29;20058;-82
2022/05/08 11:59:16;;;;;;;3.40;2.08;;;19.20;99.90;;;;;;4933062;29;20063;-83
2022/05/08 12:01:49;;;;;;;3.08;2.35;;;19.80;99.90;;;;;;4933720;29;20038;-83
2022/05/08 12:04:26;;;;;;;3.40;2.40;;;20.20;99.90;;;;;;4933756;29;20400;-83
2022/05/08 12:07:07;;;;;;;2.97;2.78;;;20.60;88.10;;;;;;4933330;29;20032;-83
2022/05/08 12:09:51;;;;;;;5.82;2.47;;;20.70;90.50;;;;;;4933420;29;20067;-83
2022/05/08 12:12:35;;;;;;;2.42;1.83;;;20.40;99.90;;;;;;4932539;29;20028;-83
2022/05/08 12:15:17;;;;;;;3.05;2.33;;;20.60;96.00;;;;;;4932122;29;20035;-83
2022/05/08 12:17:43;;;;;;;5.28;2.50;;;20.30;91.50;;;;;;4931992;29;20111;-82
2022/05/08 12:20:13;;;;;;;8.50;2.30;;;20.20;90.30;;;;;;4933446;29;20130;-82
2022/05/08 12:22:40;;;;;;;1.95;1.85;;;19.80;99.90;;;;;;4932064;29;20269;-83
2022/05/08 12:25:09;;;;;;;1.80;1.70;;;19.40;99.90;;;;;;4931496;29;20173;-83
2022/05/08 12:27:35;;;;;;;1.98;1.70;;;19.40;99.90;;;;;;4931593;29;20023;-84
2022/05/08 12:30:02;;;;;;;2.08;1.88;;;19.20;99.90;;;;;;4931832;29;20091;-83
2022/05/08 12:32:28;;;;;;;2.22;2.00;;;19.20;99.90;;;;;;4931796;29;20054;-83
2022/05/08 12:34:57;;;;;;;1.95;1.85;;;19.00;99.90;;;;;;4933388;29;20473;-82
2022/05/08 12:37:23;;;;;;;2.53;1.90;;;19.00;99.90;;;;;;4931646;29;20020;-81
2022/05/08 12:39:49;;;;;;;2.65;2.42;;;18.90;99.90;;;;;;4933619;29;20036;-82
2022/05/08 12:42:15;;;;;;;3.70;3.28;;;;;;;;;;4932041;29;20052;-83
2022/05/08 12:44:43;;;;;;;2.95;2.75;;;18.90;99.90;;;;;;4931247;29;20515;-83
2022/05/08 12:47:11;;;;;;;5.28;4.20;;;18.80;99.90;;;;;;4931451;29;20476;-84
2022/05/08 12:49:38;;;;;;;2.33;2.20;;;18.70;99.90;;;;;;4931453;29;20024;-83
2022/05/08 12:52:06;;;;;;;2.20;2.00;;;18.70;99.90;;;;;;4931700;29;20028;-83
2022/05/08 12:54:32;;;;;;;2.00;1.83;;;18.60;99.90;;;;;;4933113;29;20059;-83
2022/05/08 12:56:59;;;;;;;2.10;1.77;;;18.40;99.90;;;;;;4931341;29;20063;-82
2022/05/08 12:59:43;;;;;;;3.47;2.22;;;18.30;99.90;;;;;;4931349;29;20085;-83
2022/05/08 13:02:15;;;;;;;2.08;1.98;;;18.10;99.90;;;;;;4931489;29;20659;-84
2022/05/08 13:04:42;;;;;;;2.47;1.90;;;18.30;99.90;;;;;;4934112;29;20390;-83
2022/05/08 13:07:09;;;;;;;4.05;2.47;;;18.20;99.90;;;;;;4931553;29;20027;-83
2022/05/08 13:09:35;;;;;;;3.10;2.15;;;18.20;99.90;;;;;;4931179;29;20027;-83
2022/05/08 13:12:05;;;;;;;2.03;1.92;;;18.30;99.90;;;;;;4931251;29;20552;-82
2022/05/08 13:14:32;;;;;;;2.55;2.22;;;18.20;99.90;;;;;;4932291;29;20039;-83
2022/05/08 13:16:59;;;;;;;3.55;2.58;;;18.00;99.90;;;;;;4931572;29;20070;-83